Time;durP1;ratioP1;P1;durP2;ratioP2;P2;SDS_P1;SDS_P2;PMS_P1;PMS_P2;Temp;Humidity;BMP_temperature;BMP_pressure;BME280_temperature;BME280_humidity;BME280_pressure;Samples;Min_cycle;Max_cycle;Signal;HPM_P1;HPM_P2
2023/04/14 00:02:23;;;;;;;63.63;23.63;;;9.40;83.70;;;;;;4796448;29;20047;-87
2023/04/14 00:04:52;;;;;;;52.13;21.75;;;9.40;83.60;;;;;;4810448;29;20051;-87
2023/04/14 00:07:19;;;;;;;55.67;23.90;;;9.40;83.30;;;;;;4798280;29;20039;-87
2023/04/14 00:09:46;;;;;;;58.78;22.92;;;9.40;83.70;;;;;;4813653;29;20082;-87
2023/04/14 00:12:13;;;;;;;73.15;24.45;;;9.30;83.80;;;;;;4812001;29;20058;-88
2023/04/14 00:14:41;;;;;;;74.13;25.23;;;9.30;83.90;;;;;;4796362;29;20082;-88
2023/04/14 00:17:09;;;;;;;66.68;25.88;;;9.30;83.90;;;;;;4813816;29;20139;-88
2023/04/14 00:19:36;;;;;;;81.18;25.25;;;9.30;84.00;;;;;;4813890;29;20126;-88
2023/04/14 00:22:03;;;;;;;87.30;27.08;;;9.30;84.00;;;;;;4816734;29;20054;-88
2023/04/14 00:24:31;;;;;;;69.30;26.23;;;9.30;84.00;;;;;;4812735;29;20058;-87
2023/04/14 00:26:57;;;;;;;90.20;26.77;;;9.30;84.10;;;;;;4814686;29;20086;-87
2023/04/14 00:29:25;;;;;;;93.82;29.55;;;9.30;84.00;;;;;;4815954;29;20047;-87
2023/04/14 00:31:52;;;;;;;123.85;30.35;;;9.30;84.00;;;;;;4801015;29;20056;-87
2023/04/14 00:34:19;;;;;;;81.30;29.08;;;9.30;84.00;;;;;;4812569;29;20046;-87
2023/04/14 00:36:46;;;;;;;171.50;33.42;;;9.30;84.00;;;;;;4796429;29;20081;-87
2023/04/14 00:39:12;;;;;;;98.60;28.80;;;9.40;83.90;;;;;;4814974;29;20054;-87
2023/04/14 00:41:40;;;;;;;85.28;28.65;;;9.30;84.00;;;;;;4799287;29;20413;-88
2023/04/14 00:44:07;;;;;;;89.50;31.75;;;9.20;84.30;;;;;;4817831;29;20049;-88
2023/04/14 00:46:35;;;;;;;75.65;28.20;;;9.20;84.50;;;;;;4802283;29;20070;-88
2023/04/14 00:49:03;;;;;;;88.35;30.30;;;9.20;84.50;;;;;;4813465;29;20111;-87
2023/04/14 00:51:31;;;;;;;100.30;31.07;;;9.10;84.70;;;;;;4797377;29;20050;-88
2023/04/14 00:53:59;;;;;;;83.85;29.83;;;9.20;84.70;;;;;;4810066;29;20050;-89
2023/04/14 00:56:26;;;;;;;73.05;27.95;;;9.20;84.50;;;;;;4817917;29;20532;-87
2023/04/14 00:58:53;;;;;;;86.03;30.65;;;9.20;84.40;;;;;;4816403;29;20043;-87
2023/04/14 01:01:24;;;;;;;76.97;28.25;;;9.30;84.50;;;;;;4817833;29;20502;-87
2023/04/14 01:03:51;;;;;;;56.23;24.67;;;9.30;84.50;;;;;;4800975;29;20104;-88
2023/04/14 01:06:18;;;;;;;57.08;25.83;;;9.20;84.40;;;;;;4800851;29;20509;-87
2023/04/14 01:08:46;;;;;;;59.38;25.23;;;9.30;84.40;;;;;;4812822;29;20137;-87
2023/04/14 01:11:24;;;;;;;57.15;25.40;;;9.30;84.40;;;;;;4816388;29;20115;-88
2023/04/14 01:14:17;;;;;;;56.47;25.20;;;9.30;84.40;;;;;;4813421;29;20050;-88
2023/04/14 01:16:48;;;;;;;51.67;23.53;;;9.40;84.30;;;;;;4819978;29;20069;-88
2023/04/14 01:19:43;;;;;;;49.67;23.20;;;9.40;84.30;;;;;;4832537;29;20416;-88
2023/04/14 01:22:11;;;;;;;55.40;23.55;;;9.40;84.20;;;;;;4817159;29;20042;-88
2023/04/14 01:24:38;;;;;;;55.30;24.20;;;9.40;84.10;;;;;;4816585;29;20046;-88
2023/04/14 01:27:24;;;;;;;55.42;25.05;;;9.50;84.10;;;;;;4801174;29;20051;-88
2023/04/14 01:30:10;;;;;;;61.87;26.07;;;9.40;84.10;;;;;;4817032;29;20103;-87
2023/04/14 01:32:43;;;;;;;51.38;23.85;;;9.40;84.30;;;;;;4811479;29;20047;-88
2023/04/14 01:35:19;;;;;;;52.92;25.45;;;9.50;84.20;;;;;;4810033;29;20077;-88
2023/04/14 01:37:53;;;;;;;57.42;25.65;;;9.40;84.20;;;;;;4796283;29;20511;-87
2023/04/14 01:40:24;;;;;;;51.55;23.88;;;9.40;84.60;;;;;;4815071;29;20046;-88
2023/04/14 01:43:01;;;;;;;57.93;25.40;;;9.40;84.60;;;;;;4813342;29;20103;-88
2023/04/14 01:45:34;;;;;;;59.22;27.52;;;9.40;84.40;;;;;;4800731;29;20038;-87
2023/04/14 01:48:03;;;;;;;61.47;26.42;;;9.40;84.40;;;;;;4795939;29;20050;-87
2023/04/14 01:50:33;;;;;;;57.33;26.42;;;9.40;84.30;;;;;;4799776;29;20501;-87
2023/04/14 01:53:04;;;;;;;56.78;25.08;;;9.40;84.30;;;;;;4797191;29;20046;-87
2023/04/14 01:55:35;;;;;;;62.10;27.27;;;9.50;84.20;;;;;;4814352;29;20050;-87
2023/04/14 01:58:04;;;;;;;57.00;26.13;;;9.40;84.40;;;;;;4813627;29;20050;-88
2023/04/14 02:00:34;;;;;;;54.67;26.23;;;9.40;84.20;;;;;;4814444;29;20042;-88
2023/04/14 02:03:03;;;;;;;64.30;27.75;;;9.40;84.40;;;;;;4817717;29;20149;-87
2023/04/14 02:05:33;;;;;;;54.97;25.77;;;9.40;84.40;;;;;;4798052;29;20061;-88
2023/04/14 02:08:02;;;;;;;57.60;27.23;;;9.40;84.40;;;;;;4799740;29;20100;-87
2023/04/14 02:10:30;;;;;;;58.33;26.25;;;9.40;84.40;;;;;;4797703;29;20050;-88
2023/04/14 02:12:59;;;;;;;53.42;26.27;;;9.40;84.40;;;;;;4815208;29;20061;-88
2023/04/14 02:15:28;;;;;;;52.30;25.92;;;9.40;84.30;;;;;;4812991;29;20058;-88
2023/04/14 02:17:57;;;;;;;56.17;26.52;;;9.30;84.30;;;;;;4800551;29;20046;-87
2023/04/14 02:20:27;;;;;;;54.90;27.60;;;9.40;84.30;;;;;;4799586;29;20073;-88
2023/04/14 02:22:54;;;;;;;57.42;26.83;;;9.30;84.40;;;;;;4803174;29;20050;-87
2023/04/14 02:25:25;;;;;;;48.25;25.80;;;9.30;84.30;;;;;;4814693;29;20055;-87
2023/04/14 02:27:59;;;;;;;56.80;27.05;;;9.20;84.50;;;;;;4805827;29;20054;-88
2023/04/14 02:30:32;;;;;;;58.55;27.98;;;9.10;84.90;;;;;;4819879;29;20050;-95
2023/04/14 02:33:08;;;;;;;59.43;28.07;;;9.10;85.00;;;;;;4804737;29;20056;-87
2023/04/14 02:35:45;;;;;;;59.40;27.35;;;9.10;85.30;;;;;;4818100;29;20053;-87
2023/04/14 02:38:25;;;;;;;54.85;27.80;;;9.10;85.20;;;;;;4817123;29;20053;-87
2023/04/14 02:40:52;;;;;;;60.70;29.13;;;9.00;85.30;;;;;;4828265;29;20113;-87
2023/04/14 02:43:27;;;;;;;54.03;27.48;;;9.00;85.30;;;;;;4816307;29;20057;-88
2023/04/14 02:45:56;;;;;;;53.67;26.80;;;9.00;85.20;;;;;;4825434;29;20129;-87
2023/04/14 02:48:27;;;;;;;64.63;29.70;;;9.00;85.40;;;;;;4817162;29;20405;-87
2023/04/14 02:50:55;;;;;;;56.92;27.77;;;9.00;85.40;;;;;;4804435;29;20053;-87
2023/04/14 02:53:26;;;;;;;57.47;27.55;;;9.00;85.30;;;;;;4803566;29;20455;-88
2023/04/14 02:56:04;;;;;;;62.03;29.05;;;9.00;85.40;;;;;;4804743;29;20057;-87
2023/04/14 02:58:35;;;;;;;61.77;29.67;;;8.90;85.70;;;;;;4816605;29;20469;-87
2023/04/14 03:01:03;;;;;;;59.63;30.08;;;8.90;85.60;;;;;;4816739;29;20496;-87
2023/04/14 03:03:36;;;;;;;62.38;29.48;;;8.90;85.70;;;;;;4818526;29;20401;-87
2023/04/14 03:06:07;;;;;;;56.08;28.17;;;9.00;85.50;;;;;;4807643;29;20042;-88
2023/04/14 03:08:36;;;;;;;67.57;31.58;;;9.00;85.30;;;;;;4815773;29;20046;-88
2023/04/14 03:11:05;;;;;;;62.33;29.93;;;9.00;85.30;;;;;;4800188;29;20050;-88
2023/04/14 03:13:33;;;;;;;69.00;33.08;;;9.00;85.10;;;;;;4814023;29;20054;-87
2023/04/14 03:16:02;;;;;;;63.35;30.00;;;9.00;85.40;;;;;;4818773;29;20045;-87
2023/04/14 03:18:31;;;;;;;71.28;32.53;;;8.90;85.40;;;;;;4818439;29;20448;-88
2023/04/14 03:21:01;;;;;;;68.05;31.30;;;9.00;85.50;;;;;;4817165;29;20041;-87
2023/04/14 03:23:32;;;;;;;66.57;31.80;;;8.90;85.50;;;;;;4817567;29;20119;-87
2023/04/14 03:26:04;;;;;;;76.35;34.63;;;9.00;85.30;;;;;;4799554;29;20107;-87
2023/04/14 03:28:34;;;;;;;79.65;34.92;;;9.00;85.50;;;;;;4818759;29;20115;-88
2023/04/14 03:31:06;;;;;;;76.80;33.10;;;9.00;85.50;;;;;;4817776;29;20080;-88
2023/04/14 03:33:48;;;;;;;79.22;35.58;;;8.90;85.60;;;;;;4819845;29;20087;-87
2023/04/14 03:36:18;;;;;;;78.20;35.10;;;8.90;85.70;;;;;;4812391;29;20042;-88
2023/04/14 03:38:48;;;;;;;77.07;34.85;;;8.90;85.70;;;;;;4814303;29;20501;-87
2023/04/14 03:41:20;;;;;;;72.47;34.00;;;8.90;85.80;;;;;;4821178;29;20098;-87
2023/04/14 03:43:53;;;;;;;70.22;32.58;;;8.90;85.80;;;;;;4804806;29;20393;-87
2023/04/14 03:46:22;;;;;;;71.45;33.78;;;8.90;85.70;;;;;;4819986;29;20462;-88
2023/04/14 03:48:53;;;;;;;73.67;34.53;;;8.90;86.00;;;;;;4803199;29;20042;-87
2023/04/14 03:51:25;;;;;;;77.82;33.88;;;8.80;86.00;;;;;;4819758;29;20433;-88
2023/04/14 03:53:55;;;;;;;73.18;33.53;;;8.80;86.20;;;;;;4819573;29;20081;-87
2023/04/14 03:56:25;;;;;;;74.47;32.83;;;8.90;86.00;;;;;;4817820;29;20129;-87
2023/04/14 03:58:54;;;;;;;68.90;33.00;;;8.90;85.80;;;;;;4802822;29;20050;-88
2023/04/14 04:01:24;;;;;;;69.63;33.77;;;9.00;85.60;;;;;;4816033;29;20057;-87
2023/04/14 04:03:53;;;;;;;70.80;32.25;;;9.00;85.60;;;;;;4798594;29;20362;-87
2023/04/14 04:06:22;;;;;;;66.30;31.13;;;9.00;85.40;;;;;;4815683;29;20050;-88
2023/04/14 04:08:50;;;;;;;68.43;32.22;;;9.10;85.10;;;;;;4817226;29;20114;-88
2023/04/14 04:11:19;;;;;;;61.35;30.13;;;9.10;85.10;;;;;;4814080;29;20135;-88
2023/04/14 04:13:49;;;;;;;61.90;29.67;;;9.00;85.30;;;;;;4820055;29;20074;-87
2023/04/14 04:16:19;;;;;;;63.65;31.52;;;9.00;85.20;;;;;;4812365;29;20175;-87
2023/04/14 04:18:49;;;;;;;64.68;31.05;;;9.00;85.20;;;;;;4817023;29;20489;-87
2023/04/14 04:21:26;;;;;;;65.60;31.48;;;9.00;85.20;;;;;;4818007;29;20070;-87
2023/04/14 04:23:55;;;;;;;58.25;28.38;;;9.00;85.30;;;;;;4816009;29;20053;-88
2023/04/14 04:26:24;;;;;;;67.67;33.20;;;9.00;85.60;;;;;;4805392;29;20056;-87
2023/04/14 04:29:00;;;;;;;60.95;31.13;;;9.00;85.60;;;;;;4821266;29;20567;-87
2023/04/14 04:31:29;;;;;;;67.60;32.28;;;8.90;85.60;;;;;;4810762;29;20078;-87
2023/04/14 04:33:57;;;;;;;61.53;29.98;;;9.00;85.60;;;;;;4810272;29;20109;-87
2023/04/14 04:36:30;;;;;;;56.63;30.17;;;8.90;85.80;;;;;;4819469;29;20137;-86
2023/04/14 04:39:01;;;;;;;60.20;28.50;;;9.00;85.60;;;;;;4820873;29;20062;-87
2023/04/14 04:41:35;;;;;;;57.70;28.73;;;9.00;85.60;;;;;;4821921;29;20053;-86
2023/04/14 04:44:05;;;;;;;57.88;27.83;;;9.00;85.50;;;;;;4818838;29;20496;-87
2023/04/14 04:46:43;;;;;;;54.03;26.60;;;9.00;85.50;;;;;;4817692;29;20088;-87
2023/04/14 04:49:10;;;;;;;51.80;26.60;;;9.00;85.50;;;;;;4820244;29;20038;-88
2023/04/14 04:51:37;;;;;;;54.60;27.70;;;9.00;85.50;;;;;;4821515;29;20127;-88
2023/04/14 04:54:05;;;;;;;54.30;27.75;;;9.00;85.60;;;;;;4817637;29;20046;-88
2023/04/14 04:56:32;;;;;;;56.10;27.13;;;9.00;85.60;;;;;;4801901;29;20070;-90
2023/04/14 04:59:00;;;;;;;54.92;27.20;;;9.00;85.50;;;;;;4823129;29;20084;-89
2023/04/14 05:01:28;;;;;;;62.45;31.40;;;9.00;85.60;;;;;;4808050;29;20141;-90
2023/04/14 05:03:58;;;;;;;58.73;27.87;;;9.00;85.80;;;;;;4819584;29;20042;-88
2023/04/14 05:06:27;;;;;;;56.20;27.20;;;9.10;85.60;;;;;;4819093;29;20053;-90
2023/04/14 05:08:55;;;;;;;53.17;27.27;;;9.10;85.50;;;;;;4804121;29;20501;-89
2023/04/14 05:11:22;;;;;;;54.45;27.67;;;9.00;85.60;;;;;;4813151;29;20074;-89
2023/04/14 05:13:49;;;;;;;57.92;27.35;;;9.00;85.40;;;;;;4822042;29;20062;-93
2023/04/14 05:16:17;;;;;;;50.70;25.43;;;9.00;85.50;;;;;;4830348;29;20068;-92
2023/04/14 05:18:44;;;;;;;48.17;24.67;;;9.10;85.40;;;;;;4813702;29;20057;-90
2023/04/14 05:21:12;;;;;;;48.63;24.88;;;9.20;85.00;;;;;;4812795;29;20047;-91
2023/04/14 05:23:42;;;;;;;48.60;25.60;;;9.20;85.00;;;;;;4797099;29;20081;-91
2023/04/14 05:26:11;;;;;;;43.20;23.58;;;9.20;84.90;;;;;;4794060;29;20063;-91
2023/04/14 05:28:42;;;;;;;40.53;22.17;;;9.30;84.60;;;;;;4794394;29;20053;-91
2023/04/14 05:31:09;;;;;;;43.00;23.33;;;9.20;84.40;;;;;;4793939;29;20050;-91
2023/04/14 05:33:36;;;;;;;40.05;21.95;;;9.20;84.60;;;;;;4824182;29;20146;-92
2023/04/14 05:36:03;;;;;;;46.63;24.27;;;9.20;84.90;;;;;;4811470;29;20074;-92
2023/04/14 05:38:30;;;;;;;42.97;23.60;;;9.20;84.90;;;;;;4816452;29;20058;-94
2023/04/14 05:40:58;;;;;;;46.57;23.03;;;9.30;85.10;;;;;;4815721;29;20046;-96
2023/04/14 05:43:26;;;;;;;44.80;23.17;;;9.40;85.10;;;;;;4832314;29;20054;-96
2023/04/14 05:45:57;;;;;;;40.85;20.33;;;9.40;85.20;;;;;;4821579;29;20057;-95
2023/04/14 05:48:27;;;;;;;42.65;23.48;;;9.50;84.80;;;;;;4828801;29;20531;-94
2023/04/14 05:50:54;;;;;;;41.30;22.95;;;9.50;84.80;;;;;;4812197;29;20149;-96
2023/04/14 05:53:22;;;;;;;44.87;22.30;;;9.50;84.20;;;;;;4813787;29;20054;-96
2023/04/14 05:55:53;;;;;;;41.92;21.88;;;9.50;84.20;;;;;;4832887;29;20050;-92
2023/04/14 05:58:20;;;;;;;49.92;24.55;;;9.50;84.30;;;;;;4808677;29;20054;-94
2023/04/14 06:00:47;;;;;;;41.97;22.45;;;9.50;85.00;;;;;;4793608;29;20101;-92
2023/04/14 06:03:16;;;;;;;44.20;22.85;;;9.50;84.30;;;;;;4808398;29;20070;-92
2023/04/14 06:05:44;;;;;;;49.60;25.30;;;9.50;84.30;;;;;;4794062;29;20475;-92
2023/04/14 06:08:11;;;;;;;41.85;22.42;;;9.50;84.50;;;;;;4808277;29;20562;-95
2023/04/14 06:10:38;;;;;;;46.35;23.60;;;9.50;84.40;;;;;;4794049;29;20137;-94
2023/04/14 06:13:07;;;;;;;46.13;23.65;;;9.50;84.40;;;;;;4808710;29;20059;-93
2023/04/14 06:15:34;;;;;;;47.60;25.25;;;9.50;84.50;;;;;;4796206;29;20046;-89
2023/04/14 06:18:01;;;;;;;43.37;24.07;;;9.50;84.80;;;;;;4826542;29;20110;-92
2023/04/14 06:20:30;;;;;;;44.75;23.00;;;9.60;84.80;;;;;;4825993;29;20058;-91
2023/04/14 06:22:59;;;;;;;46.22;25.98;;;9.60;84.30;;;;;;4811209;29;20055;-92
2023/04/14 06:25:26;;;;;;;48.65;24.98;;;9.70;84.70;;;;;;4825909;29;20050;-92
2023/04/14 06:27:53;;;;;;;44.97;23.73;;;9.70;84.50;;;;;;4825955;29;20509;-91
2023/04/14 06:30:20;;;;;;;44.17;23.67;;;9.80;84.40;;;;;;4826048;29;20471;-91
2023/04/14 06:32:52;;;;;;;43.38;23.88;;;9.80;84.20;;;;;;4810913;29;20050;-92
2023/04/14 06:35:20;;;;;;;41.90;23.38;;;9.90;84.10;;;;;;4825925;29;20054;-92
2023/04/14 06:38:01;;;;;;;40.95;22.25;;;10.00;84.00;;;;;;4825771;29;20051;-91
2023/04/14 06:40:28;;;;;;;41.50;22.73;;;10.00;83.50;;;;;;4825709;29;20141;-92
2023/04/14 06:42:55;;;;;;;41.17;21.07;;;10.00;83.20;;;;;;4825682;29;20039;-92
2023/04/14 06:45:22;;;;;;;45.45;22.75;;;10.10;83.10;;;;;;4825709;29;20050;-92
2023/04/14 06:47:50;;;;;;;42.80;23.95;;;10.10;83.10;;;;;;4825776;29;20047;-92
2023/04/14 06:50:17;;;;;;;41.60;22.63;;;10.10;82.60;;;;;;4820812;29;20103;-91
2023/04/14 06:52:44;;;;;;;45.30;24.75;;;10.10;82.40;;;;;;4807240;29;20058;-91
2023/04/14 06:55:11;;;;;;;43.33;24.10;;;10.20;82.70;;;;;;4807289;29;20074;-91
2023/04/14 06:57:38;;;;;;;42.72;22.67;;;10.20;82.60;;;;;;4792403;29;20153;-92
2023/04/14 07:00:06;;;;;;;39.92;20.77;;;10.20;82.70;;;;;;4807037;29;20054;-91
2023/04/14 07:02:33;;;;;;;38.55;21.23;;;10.20;82.50;;;;;;4807340;29;20043;-91
2023/04/14 07:05:00;;;;;;;42.72;21.65;;;10.20;82.10;;;;;;4792174;29;20050;-91
2023/04/14 07:07:27;;;;;;;41.03;23.57;;;10.30;82.00;;;;;;4792274;29;20055;-91
2023/04/14 07:09:54;;;;;;;44.17;24.02;;;10.30;81.90;;;;;;4807113;29;20047;-91
2023/04/14 07:12:21;;;;;;;44.55;23.02;;;10.20;82.10;;;;;;4807010;29;20050;-91
2023/04/14 07:14:51;;;;;;;40.45;21.90;;;10.30;82.20;;;;;;4806964;29;20057;-91
2023/04/14 07:17:19;;;;;;;46.30;24.35;;;10.30;82.10;;;;;;4791881;29;20046;-91
2023/04/14 07:19:46;;;;;;;43.40;23.80;;;10.40;82.00;;;;;;4806890;29;20047;-91
2023/04/14 07:22:13;;;;;;;40.00;22.45;;;10.40;81.90;;;;;;4791930;29;20043;-90
2023/04/14 07:24:40;;;;;;;38.47;22.13;;;10.40;81.90;;;;;;4791878;29;20051;-91
2023/04/14 07:27:13;;;;;;;40.30;22.58;;;10.40;81.40;;;;;;4791683;29;20582;-91
2023/04/14 07:29:41;;;;;;;43.88;23.98;;;10.30;81.50;;;;;;4792003;29;20502;-91
2023/04/14 07:32:08;;;;;;;42.97;24.13;;;10.20;82.10;;;;;;4791741;29;20059;-92
2023/04/14 07:34:35;;;;;;;46.60;23.88;;;10.20;82.40;;;;;;4792120;29;20046;-90
2023/04/14 07:37:05;;;;;;;40.42;22.33;;;10.20;82.30;;;;;;4791760;29;20054;-91
2023/04/14 07:39:32;;;;;;;42.00;23.20;;;10.20;82.70;;;;;;4806581;29;20055;-91
2023/04/14 07:42:00;;;;;;;40.35;23.80;;;10.40;83.00;;;;;;4791453;29;20558;-91
2023/04/14 07:44:27;;;;;;;40.00;21.50;;;10.50;82.20;;;;;;4806586;29;20042;-91
2023/04/14 07:46:55;;;;;;;40.22;23.05;;;10.50;81.60;;;;;;4806769;29;20100;-91
2023/04/14 07:49:23;;;;;;;39.20;21.23;;;10.50;82.30;;;;;;4791396;29;20047;-92
2023/04/14 07:51:50;;;;;;;41.95;23.23;;;10.60;81.60;;;;;;4791636;29;20055;-91
2023/04/14 07:54:17;;;;;;;42.83;23.42;;;10.60;81.80;;;;;;4806569;29;20078;-92
2023/04/14 07:56:44;;;;;;;40.27;21.40;;;10.60;81.70;;;;;;4791771;29;20117;-91
2023/04/14 07:59:11;;;;;;;37.95;20.85;;;10.70;81.20;;;;;;4806181;29;20403;-91
2023/04/14 08:01:38;;;;;;;38.53;22.67;;;10.70;81.10;;;;;;4791347;29;20528;-91
2023/04/14 08:04:05;;;;;;;40.47;22.13;;;10.80;82.00;;;;;;4806645;29;20047;-91
2023/04/14 08:06:33;;;;;;;36.30;21.35;;;10.80;82.10;;;;;;4791386;29;20051;-91
2023/04/14 08:09:00;;;;;;;37.07;21.20;;;10.90;80.80;;;;;;4806274;29;20058;-91
2023/04/14 08:11:31;;;;;;;37.92;21.80;;;10.80;80.40;;;;;;4806161;29;20065;-91
2023/04/14 08:13:58;;;;;;;38.85;21.65;;;10.80;80.60;;;;;;4791390;29;20070;-91
2023/04/14 08:16:25;;;;;;;38.65;21.17;;;10.80;80.70;;;;;;4806231;29;20059;-91
2023/04/14 08:18:52;;;;;;;41.28;20.67;;;10.80;81.00;;;;;;4791184;29;20395;-91
2023/04/14 08:21:23;;;;;;;35.20;19.33;;;11.00;80.50;;;;;;4806109;29;20142;-91
2023/04/14 08:23:50;;;;;;;37.33;20.95;;;11.00;80.00;;;;;;4791204;29;20510;-90
2023/04/14 08:26:17;;;;;;;37.63;22.08;;;10.90;80.10;;;;;;4806328;29;20058;-91
2023/04/14 08:28:45;;;;;;;34.25;20.10;;;11.00;80.40;;;;;;4791633;29;20047;-91
2023/04/14 08:31:12;;;;;;;38.92;22.35;;;11.00;80.80;;;;;;4791216;29;20089;-92
2023/04/14 08:33:39;;;;;;;37.60;21.83;;;11.10;80.60;;;;;;4791025;29;20421;-91
2023/04/14 08:36:06;;;;;;;34.88;20.85;;;11.20;79.20;;;;;;4791281;29;20050;-91
2023/04/14 08:38:33;;;;;;;39.38;21.52;;;11.30;79.10;;;;;;4791025;29;20082;-91
2023/04/14 08:41:06;;;;;;;37.88;20.92;;;11.40;80.30;;;;;;4805931;29;20051;-90
2023/04/14 08:43:34;;;;;;;36.28;21.25;;;11.30;79.10;;;;;;4806052;29;20149;-91
2023/04/14 08:46:02;;;;;;;36.77;21.47;;;11.30;79.90;;;;;;4791024;29;20116;-90
2023/04/14 08:48:30;;;;;;;35.30;18.92;;;11.30;79.80;;;;;;4805820;29;20061;-91
2023/04/14 08:51:33;;;;;;;31.13;18.02;;;11.30;79.50;;;;;;4791098;29;20051;-91
2023/04/14 08:54:06;;;;;;;36.60;21.75;;;11.50;79.40;;;;;;4790960;29;20051;-91
2023/04/14 08:56:38;;;;;;;36.90;18.42;;;11.70;80.10;;;;;;4790953;29;20057;-91
2023/04/14 08:59:06;;;;;;;33.90;19.83;;;11.90;78.80;;;;;;4791007;29;20051;-92
2023/04/14 09:01:35;;;;;;;37.75;20.95;;;12.00;77.10;;;;;;4790819;29;20054;-92
2023/04/14 09:04:03;;;;;;;37.92;21.23;;;12.00;78.50;;;;;;4806407;29;20070;-91
2023/04/14 09:06:31;;;;;;;35.75;19.88;;;12.00;78.10;;;;;;4790980;29;20062;-91
2023/04/14 09:09:04;;;;;;;33.55;20.33;;;12.20;76.10;;;;;;4790896;29;20410;-91
2023/04/14 09:11:31;;;;;;;37.63;21.17;;;12.30;77.20;;;;;;4791437;29;20122;-91
2023/04/14 09:13:59;;;;;;;36.13;22.15;;;12.50;77.10;;;;;;4809282;29;20055;-91
2023/04/14 09:16:27;;;;;;;38.65;22.50;;;12.50;76.40;;;;;;4809211;29;20051;-91
2023/04/14 09:18:56;;;;;;;35.33;21.92;;;12.60;76.30;;;;;;4793866;29;20080;-91
2023/04/14 09:21:35;;;;;;;37.95;22.60;;;12.60;76.30;;;;;;4808999;29;20112;-90
2023/04/14 09:24:28;;;;;;;32.67;19.40;;;12.70;75.90;;;;;;4808939;29;20055;-91
2023/04/14 09:27:04;;;;;;;38.17;20.88;;;12.70;75.80;;;;;;4793983;29;20051;-91
2023/04/14 09:29:32;;;;;;;37.85;22.40;;;12.50;74.90;;;;;;4809118;29;20534;-90
2023/04/14 09:31:59;;;;;;;35.80;22.10;;;12.50;75.80;;;;;;4793752;29;20091;-91
2023/04/14 09:34:26;;;;;;;36.28;20.75;;;12.40;75.90;;;;;;4793981;29;20509;-90
2023/04/14 09:37:05;;;;;;;38.47;22.30;;;12.40;76.70;;;;;;4793985;29;20058;-91
2023/04/14 09:39:34;;;;;;;35.20;20.77;;;12.50;77.50;;;;;;4794263;29;20055;-90
2023/04/14 09:42:02;;;;;;;30.15;16.75;;;12.50;75.70;;;;;;4808523;29;20514;-91
2023/04/14 09:44:29;;;;;;;31.85;17.40;;;12.50;75.50;;;;;;4808494;29;20055;-90
2023/04/14 09:47:03;;;;;;;30.35;18.60;;;12.50;74.30;;;;;;4800528;29;20050;-91
2023/04/14 09:49:31;;;;;;;27.33;16.27;;;12.50;74.80;;;;;;4826305;29;20057;-91
2023/04/14 09:52:06;;;;;;;27.25;15.82;;;12.70;75.10;;;;;;4811173;29;20399;-90
2023/04/14 09:54:33;;;;;;;31.08;14.98;;;12.80;73.80;;;;;;4811206;29;20525;-90
2023/04/14 09:57:01;;;;;;;25.92;13.95;;;12.90;73.40;;;;;;4811260;29;20547;-91
2023/04/14 09:59:33;;;;;;;28.33;14.93;;;13.00;72.70;;;;;;4826013;29;20130;-91
2023/04/14 10:02:04;;;;;;;25.23;14.90;;;13.10;73.20;;;;;;4825979;29;20528;-90
2023/04/14 10:04:32;;;;;;;25.40;13.98;;;13.30;73.50;;;;;;4825862;29;20050;-91
2023/04/14 10:07:00;;;;;;;24.40;13.98;;;13.40;72.30;;;;;;4826087;29;20075;-91
2023/04/14 10:09:28;;;;;;;25.35;14.55;;;13.40;71.50;;;;;;4811113;29;20046;-91
2023/04/14 10:12:12;;;;;;;26.65;14.93;;;13.50;72.60;;;;;;4825761;29;20114;-91
2023/04/14 10:14:41;;;;;;;24.27;14.50;;;13.50;71.60;;;;;;4825983;29;20050;-91
2023/04/14 10:17:08;;;;;;;23.70;13.63;;;13.60;70.60;;;;;;4810917;29;20054;-91
2023/04/14 10:19:36;;;;;;;21.63;13.63;;;13.60;71.20;;;;;;4810760;29;20057;-90
2023/04/14 10:22:06;;;;;;;25.25;12.90;;;13.50;70.30;;;;;;4810528;29;20472;-90
2023/04/14 10:24:34;;;;;;;24.77;15.43;;;13.40;71.50;;;;;;4825541;29;20111;-90
2023/04/14 10:27:02;;;;;;;24.20;13.87;;;13.30;71.00;;;;;;4810801;29;20058;-90
2023/04/14 10:29:30;;;;;;;28.33;16.88;;;13.30;72.50;;;;;;4825699;29;20083;-90
2023/04/14 10:32:04;;;;;;;27.48;17.30;;;13.30;73.00;;;;;;4810488;29;20050;-91
2023/04/14 10:34:32;;;;;;;29.10;16.63;;;13.30;73.80;;;;;;4810660;29;20054;-90
2023/04/14 10:37:12;;;;;;;29.02;16.33;;;13.20;73.10;;;;;;4810378;29;20054;-91
2023/04/14 10:39:41;;;;;;;32.00;18.07;;;13.10;73.40;;;;;;4810531;29;20058;-90
2023/04/14 10:42:08;;;;;;;28.23;16.85;;;13.10;73.60;;;;;;4825311;29;20050;-90
2023/04/14 10:44:39;;;;;;;31.55;17.02;;;13.20;73.80;;;;;;4810526;29;20141;-90
2023/04/14 10:47:06;;;;;;;29.95;17.48;;;13.20;73.60;;;;;;4825383;29;20062;-90
2023/04/14 10:49:36;;;;;;;29.30;16.13;;;13.40;74.20;;;;;;4810378;29;20050;-90
2023/04/14 10:52:24;;;;;;;25.33;13.77;;;13.50;72.80;;;;;;4825281;29;20064;-90
2023/04/14 10:54:59;;;;;;;20.98;11.80;;;13.80;70.70;;;;;;4825050;29;20096;-91
2023/04/14 10:57:28;;;;;;;22.15;11.45;;;13.90;71.10;;;;;;4825065;29;20054;-90
2023/04/14 10:59:59;;;;;;;21.88;13.70;;;14.00;68.70;;;;;;4825094;29;20056;-90
2023/04/14 11:02:31;;;;;;;19.67;11.70;;;14.10;69.60;;;;;;4824906;29;20047;-90
2023/04/14 11:05:02;;;;;;;22.07;12.33;;;14.20;69.20;;;;;;4810108;29;20416;-91
2023/04/14 11:07:39;;;;;;;19.17;11.30;;;14.30;67.80;;;;;;4825139;29;20065;-91
2023/04/14 11:10:21;;;;;;;18.20;10.70;;;14.30;68.80;;;;;;4810229;29;20528;-90
2023/04/14 11:12:56;;;;;;;22.58;12.18;;;14.20;67.90;;;;;;4824901;29;20111;-90
2023/04/14 11:15:41;;;;;;;18.60;10.63;;;14.20;68.60;;;;;;4809841;29;20086;-90
2023/04/14 11:18:36;;;;;;;16.70;9.63;;;14.30;67.60;;;;;;4824912;29;20111;-90
2023/04/14 11:21:15;;;;;;;20.75;11.90;;;14.30;66.20;;;;;;4801611;29;20149;-90
2023/04/14 11:23:42;;;;;;;19.17;9.82;;;14.50;68.10;;;;;;4824898;29;20111;-90
2023/04/14 11:26:11;;;;;;;19.80;10.23;;;14.60;67.40;;;;;;4811044;29;20089;-90
2023/04/14 11:28:40;;;;;;;19.42;10.57;;;14.90;66.20;;;;;;4828142;29;20058;-90
2023/04/14 11:31:12;;;;;;;19.97;10.97;;;15.00;65.10;;;;;;4827530;29;20543;-90
2023/04/14 11:33:43;;;;;;;13.88;8.40;;;15.00;64.50;;;;;;4818680;29;20098;-90
2023/04/14 11:36:11;;;;;;;17.70;10.48;;;15.10;63.90;;;;;;4809457;29;20536;-90
2023/04/14 11:38:41;;;;;;;17.98;9.63;;;15.30;65.40;;;;;;4810380;29;20046;-90
2023/04/14 11:41:09;;;;;;;18.20;8.95;;;15.40;64.70;;;;;;4809990;29;20054;-90
2023/04/14 11:43:37;;;;;;;16.00;8.67;;;15.50;63.60;;;;;;4809991;29;20046;-90
2023/04/14 11:46:06;;;;;;;14.82;7.82;;;15.50;62.60;;;;;;4809969;29;20062;-90
2023/04/14 11:48:34;;;;;;;15.80;8.40;;;15.50;63.20;;;;;;4808966;29;20052;-90
2023/04/14 11:51:02;;;;;;;13.57;7.78;;;15.60;62.70;;;;;;4811563;29;20046;-90
2023/04/14 11:53:33;;;;;;;17.33;7.97;;;15.60;62.30;;;;;;4810291;29;20046;-90
2023/04/14 11:56:05;;;;;;;13.27;7.87;;;15.50;61.30;;;;;;4810139;29;20050;-90
2023/04/14 11:58:32;;;;;;;13.07;7.72;;;15.50;60.80;;;;;;4795422;29;20053;-89
2023/04/14 12:01:00;;;;;;;12.55;7.07;;;15.30;62.40;;;;;;4794942;29;20042;-90
2023/04/14 12:03:28;;;;;;;12.38;7.35;;;15.30;63.00;;;;;;4809572;29;20050;-90
2023/04/14 12:06:00;;;;;;;12.55;7.22;;;15.30;63.30;;;;;;4791742;29;20053;-90
2023/04/14 12:08:30;;;;;;;16.60;8.27;;;15.40;63.20;;;;;;4791778;29;20054;-90
2023/04/14 12:10:57;;;;;;;14.40;7.40;;;15.40;64.20;;;;;;4777103;29;20453;-90
2023/04/14 12:13:25;;;;;;;14.70;7.18;;;15.30;62.40;;;;;;4791542;29;20078;-90
2023/04/14 12:15:53;;;;;;;13.35;7.78;;;15.20;62.60;;;;;;4776866;29;20062;-90
2023/04/14 12:18:20;;;;;;;14.23;6.93;;;15.20;63.70;;;;;;4791680;29;20055;-90
2023/04/14 12:21:00;;;;;;;14.50;8.03;;;15.20;63.50;;;;;;4791732;29;20042;-90
2023/04/14 12:23:28;;;;;;;12.50;6.38;;;15.20;64.00;;;;;;4791490;29;20413;-90
2023/04/14 12:25:55;;;;;;;11.93;6.03;;;15.30;62.20;;;;;;4791615;29;20051;-90
2023/04/14 12:28:27;;;;;;;12.35;6.68;;;15.20;62.40;;;;;;4791576;29;20073;-90
2023/04/14 12:30:58;;;;;;;12.98;7.13;;;15.10;61.50;;;;;;4791402;29;20050;-90
2023/04/14 12:33:29;;;;;;;10.77;6.00;;;15.20;63.00;;;;;;4791629;29;20054;-90
2023/04/14 12:36:03;;;;;;;12.90;5.95;;;15.30;63.10;;;;;;4791408;29;20059;-90
2023/04/14 12:38:30;;;;;;;13.13;6.10;;;15.30;62.00;;;;;;4791561;29;20059;-90
2023/04/14 12:40:58;;;;;;;11.43;6.50;;;15.30;60.80;;;;;;4791565;29;20070;-91
2023/04/14 12:43:34;;;;;;;11.30;5.90;;;15.30;61.90;;;;;;4791442;29;20149;-91
2023/04/14 12:46:03;;;;;;;12.40;6.07;;;15.40;61.20;;;;;;4792454;29;20053;-91
2023/04/14 12:48:45;;;;;;;14.15;6.45;;;15.40;62.10;;;;;;4794996;29;20687;-91